Time,TemperatureF,DewpointF,PressureIn,WindDirection,WindDirectionDegrees,WindSpeedMPH,WindSpeedGustMPH,Humidity,HourlyPrecipIn,Conditions,Clouds,dailyrainin,SoftwareType,DateUTC
2014-12-20 00:22:00,24.0,20.0,30.33,WSW,247,0.0,0.0,85,0.00,,,0.00,,2014-12-20 06:22:00,
2014-12-20 00:52:00,24.0,20.0,30.32,WSW,247,0.0,0.0,84,0.00,,,0.00,,2014-12-20 06:52:00,
2014-12-20 01:22:00,24.0,20.0,30.33,WSW,247,0.0,2.0,83,0.00,,,0.00,,2014-12-20 07:22:00,
2014-12-20 01:52:00,24.0,19.0,30.33,WSW,247,2.0,3.0,82,0.00,,,0.00,,2014-12-20 07:52:00,
2014-12-20 02:22:00,24.0,20.0,30.34,WSW,247,1.0,3.0,84,0.00,,,0.00,,2014-12-20 08:22:00,
2014-12-20 02:52:00,24.0,20.0,30.35,WSW,247,1.0,3.0,83,0.00,,,0.00,,2014-12-20 08:52:00,
2014-12-20 03:12:00,24.0,20.0,30.35,WSW,247,3.0,3.0,84,0.00,,,0.00,,2014-12-20 09:12:00,
2014-12-20 03:22:00,24.0,20.0,30.35,WSW,247,1.0,3.0,84,0.00,,,0.00,,2014-12-20 09:22:00,
2014-12-20 03:54:00,24.0,20.0,30.34,WSW,247,2.0,3.0,83,0.00,,,0.00,,2014-12-20 09:54:00,
2014-12-20 04:13:00,24.0,20.0,30.34,WSW,247,2.0,3.0,83,0.00,,,0.00,,2014-12-20 10:13:00,
2014-12-20 04:23:00,24.0,20.0,30.34,WSW,247,0.0,3.0,83,0.00,,,0.00,,2014-12-20 10:23:00,
2014-12-20 04:53:00,24.0,20.0,30.33,WSW,247,0.0,0.0,83,0.00,,,0.00,,2014-12-20 10:53:00,
2014-12-20 05:03:00,24.0,20.0,30.33,WSW,247,0.0,0.0,83,0.00,,,0.00,,2014-12-20 11:03:00,
2014-12-20 05:22:00,25.0,20.0,30.33,WSW,247,0.0,0.0,82,0.00,,,0.00,,2014-12-20 11:22:00,
2014-12-20 05:52:00,25.0,20.0,30.33,WSW,247,0.0,0.0,82,0.00,,,0.00,,2014-12-20 11:52:00,
2014-12-20 06:13:00,25.0,20.0,30.33,WSW,247,0.0,0.0,81,0.00,,,0.00,,2014-12-20 12:13:00,
2014-12-20 06:22:00,25.0,20.0,30.33,WSW,247,0.0,1.0,81,0.00,,,0.00,,2014-12-20 12:22:00,
2014-12-20 06:52:00,25.0,20.0,30.33,WSW,247,0.0,0.0,81,0.00,,,0.00,,2014-12-20 12:52:00,
2014-12-20 07:11:00,25.0,20.0,30.33,WSW,247,0.0,2.0,81,0.00,,,0.00,,2014-12-20 13:11:00,
2014-12-20 07:22:00,25.0,20.0,30.33,WSW,247,0.0,2.0,81,0.00,,,0.00,,2014-12-20 13:22:00,
2014-12-20 07:52:00,26.0,21.0,30.34,WSW,247,0.0,2.0,81,0.00,,,0.00,,2014-12-20 13:52:00,
2014-12-20 08:12:00,25.0,20.0,30.34,WSW,247,1.0,2.0,82,0.00,,,0.00,,2014-12-20 14:12:00,
2014-12-20 08:22:00,25.0,21.0,30.34,WSW,247,0.0,2.0,84,0.00,,,0.00,,2014-12-20 14:22:00,
2014-12-20 08:52:00,26.0,22.0,30.33,WSW,247,0.0,0.0,84,0.00,,,0.00,,2014-12-20 14:52:00,
2014-12-20 09:11:00,26.0,22.0,30.33,WSW,247,0.0,0.0,84,0.00,,,0.00,,2014-12-20 15:11:00,
2014-12-20 09:22:00,26.0,22.0,30.33,WSW,247,0.0,0.0,84,0.00,,,0.00,,2014-12-20 15:22:00,
2014-12-20 09:50:00,-999.0,-99.9,30.33,WSW,247,0.0,0.0,81,0.00,,,0.00,,2014-12-20 15:50:00,
2014-12-20 10:00:00,27.0,-99.9,30.33,WSW,247,0.0,0.0,81,0.00,,,0.00,,2014-12-20 16:00:00,
2014-12-20 10:10:00,-999.0,-99.9,30.34,WSW,247,0.0,2.0,79,0.00,,,0.00,,2014-12-20 16:10:00,
2014-12-20 10:20:00,27.0,21.0,30.34,WSW,247,0.0,2.0,79,0.00,,,0.00,,2014-12-20 16:20:00,
2014-12-20 10:30:00,-999.0,-99.9,30.33,WSW,247,0.0,2.0,78,0.00,,,0.00,,2014-12-20 16:30:00,
2014-12-20 10:50:00,-999.0,-99.9,30.33,WSW,247,0.0,3.0,77,0.00,,,0.00,,2014-12-20 16:50:00,
2014-12-20 11:00:00,-999.0,-99.9,30.33,WSW,247,0.0,3.0,77,0.00,,,0.00,,2014-12-20 17:00:00,
2014-12-20 11:10:00,-999.0,-99.9,30.33,WSW,247,0.0,0.0,-999,0.00,,,0.00,,2014-12-20 17:10:00,
2014-12-20 11:20:00,-999.0,-99.9,30.33,WSW,247,0.0,0.0,77,0.00,,,0.00,,2014-12-20 17:20:00,
2014-12-20 11:30:00,28.0,22.0,30.32,WSW,247,1.0,3.0,77,0.00,,,0.00,,2014-12-20 17:30:00,
2014-12-20 11:53:00,28.0,22.0,30.32,WSW,247,0.0,3.0,77,0.00,,,0.00,,2014-12-20 17:53:00,
2014-12-20 12:12:00,28.0,21.0,30.32,WSW,247,0.0,1.0,76,0.00,,,0.00,,2014-12-20 18:12:00,
2014-12-20 12:23:00,29.0,22.0,30.31,WSW,247,0.0,3.0,76,0.00,,,0.00,,2014-12-20 18:23:00,
2014-12-20 12:52:00,28.0,22.0,30.31,WSW,247,2.0,3.0,77,0.00,,,0.00,,2014-12-20 18:52:00,
2014-12-20 13:12:00,28.0,22.0,30.30,WSW,247,0.0,0.0,78,0.00,,,0.00,,2014-12-20 19:12:00,
2014-12-20 13:23:00,29.0,23.0,30.30,WSW,247,3.0,4.0,78,0.00,,,0.00,,2014-12-20 19:23:00,
2014-12-20 13:53:00,29.0,24.0,30.29,WSW,247,0.0,3.0,80,0.00,,,0.00,,2014-12-20 19:53:00,
2014-12-20 14:12:00,29.0,24.0,30.29,WSW,247,0.0,0.0,80,0.00,,,0.00,,2014-12-20 20:12:00,
2014-12-20 14:22:00,29.0,24.0,30.29,WSW,247,1.0,3.0,80,0.00,,,0.00,,2014-12-20 20:22:00,
2014-12-20 14:52:00,29.0,24.0,30.29,WSW,247,2.0,2.0,81,0.00,,,0.00,,2014-12-20 20:52:00,
2014-12-20 15:12:00,29.0,24.0,30.30,WSW,247,1.0,3.0,82,0.00,,,0.00,,2014-12-20 21:12:00,
2014-12-20 15:22:00,29.0,24.0,30.30,WSW,247,0.0,3.0,82,0.00,,,0.00,,2014-12-20 21:22:00,
2014-12-20 15:54:00,29.0,24.0,30.30,WSW,247,1.0,2.0,82,0.00,,,0.00,,2014-12-20 21:54:00,
2014-12-20 16:23:00,30.0,25.0,30.30,WSW,247,0.0,0.0,83,0.00,,,0.00,,2014-12-20 22:23:00,
2014-12-20 16:53:00,30.0,25.0,30.29,WSW,247,0.0,1.0,82,0.00,,,0.00,,2014-12-20 22:53:00,
2014-12-20 17:12:00,30.0,25.0,30.29,WSW,247,0.0,1.0,82,0.00,,,0.00,,2014-12-20 23:12:00,
2014-12-20 17:22:00,30.0,25.0,30.30,WSW,247,0.0,0.0,82,0.00,,,0.00,,2014-12-20 23:22:00,
2014-12-20 17:53:00,30.0,25.0,30.29,WSW,247,0.0,0.0,81,0.00,,,0.00,,2014-12-20 23:53:00,
2014-12-20 18:12:00,30.0,25.0,30.30,WSW,247,0.0,0.0,82,0.00,,,0.00,,2014-12-21 00:12:00,
2014-12-20 18:22:00,30.0,25.0,30.31,WSW,247,0.0,1.0,82,0.00,,,0.00,,2014-12-21 00:22:00,
2014-12-20 18:42:00,30.0,25.0,30.31,WSW,247,0.0,0.0,82,0.00,,,0.00,,2014-12-21 00:42:00,
2014-12-20 18:52:00,30.0,25.0,30.31,WSW,247,1.0,3.0,82,0.00,,,0.00,,2014-12-21 00:52:00,